Time;durP1;ratioP1;P1;durP2;ratioP2;P2;SDS_P1;SDS_P2;PMS_P1;PMS_P2;Temp;Humidity;BMP_temperature;BMP_pressure;BME280_temperature;BME280_humidity;BME280_pressure;Samples;Min_cycle;Max_cycle;Signal;HPM_P1;HPM_P2
2020/12/15 00:01:19;;;;;;;;;;;;;;;3.54;100.00;100626.72;5114115;28;19924;-72
2020/12/15 00:03:45;;;;;;;;;;;;;;;3.51;100.00;100619.69;5114057;28;20027;-71
2020/12/15 00:06:12;;;;;;;;;;;;;;;3.51;100.00;100623.28;5113894;27;19924;-72
2020/12/15 00:08:38;;;;;;;;;;;;;;;3.48;100.00;100617.19;5113689;28;19959;-72
2020/12/15 00:11:03;;;;;;;;;;;;;;;3.46;100.00;100617.28;5113402;28;19978;-71
2020/12/15 00:13:29;;;;;;;;;;;;;;;3.45;100.00;100612.00;5113896;28;19968;-71
2020/12/15 00:15:55;;;;;;;;;;;;;;;3.42;100.00;100613.03;5113858;28;20304;-72
2020/12/15 00:18:21;;;;;;;;;;;;;;;3.38;100.00;100603.41;5113639;28;19978;-71
2020/12/15 00:20:46;;;;;;;;;;;;;;;3.33;100.00;100609.00;5113707;28;20297;-72
2020/12/15 00:23:13;;;;;;;;;;;;;;;3.30;100.00;100611.84;5113213;28;19927;-71
2020/12/15 00:25:40;;;;;;;;;;;;;;;3.31;100.00;100613.59;5113591;28;20337;-72
2020/12/15 00:28:06;;;;;;;;;;;;;;;3.29;100.00;100617.31;5113440;28;20068;-72
2020/12/15 00:30:32;;;;;;;;;;;;;;;3.26;100.00;100612.97;5113539;28;20388;-71
2020/12/15 00:32:58;;;;;;;;;;;;;;;3.24;100.00;100619.34;5113441;28;20003;-72
2020/12/15 00:35:24;;;;;;;;;;;;;;;3.21;100.00;100616.81;5113371;28;20381;-72
2020/12/15 00:37:49;;;;;;;;;;;;;;;3.17;100.00;100622.34;5113177;28;19924;-72
2020/12/15 00:40:16;;;;;;;;;;;;;;;3.15;100.00;100616.22;5113370;28;19931;-71
2020/12/15 00:42:42;;;;;;;;;;;;;;;3.16;100.00;100614.38;5112903;28;19923;-72
2020/12/15 00:45:08;;;;;;;;;;;;;;;3.16;100.00;100611.72;5113202;28;19985;-72
2020/12/15 00:47:34;;;;;;;;;;;;;;;3.16;100.00;100609.03;5113145;28;20350;-71
2020/12/15 00:50:00;;;;;;;;;;;;;;;3.15;100.00;100609.97;5113085;28;19923;-71
2020/12/15 00:52:26;;;;;;;;;;;;;;;3.16;100.00;100604.50;5111804;28;19931;-71
2020/12/15 00:54:52;;;;;;;;;;;;;;;3.18;100.00;100605.31;5111832;28;19928;-72
2020/12/15 00:57:19;;;;;;;;;;;;;;;3.20;100.00;100607.06;5112870;28;19931;-72
2020/12/15 00:59:44;;;;;;;;;;;;;;;3.22;100.00;100600.66;5111724;28;19928;-71
2020/12/15 01:02:12;;;;;;;;;;;;;;;3.22;100.00;100597.97;5111340;28;19928;-72
2020/12/15 01:04:38;;;;;;;;;;;;;;;3.25;100.00;100613.91;5112829;28;19931;-71
2020/12/15 01:07:05;;;;;;;;;;;;;;;3.22;100.00;100615.88;5111278;28;19970;-71
2020/12/15 01:09:31;;;;;;;;;;;;;;;3.21;100.00;100622.19;5111570;28;19931;-71
2020/12/15 01:11:57;;;;;;;;;;;;;;;3.22;100.00;100632.84;5112656;28;19976;-71
2020/12/15 01:14:23;;;;;;;;;;;;;;;3.22;100.00;100621.25;5111456;28;20384;-71
2020/12/15 01:16:53;;;;;;;;;;;;;;;3.22;100.00;100605.13;5111172;28;20002;-72
2020/12/15 01:19:19;;;;;;;;;;;;;;;3.22;100.00;100611.41;5111254;28;19981;-72
2020/12/15 01:21:46;;;;;;;;;;;;;;;3.18;100.00;100601.78;5112484;28;19931;-71
2020/12/15 01:24:14;;;;;;;;;;;;;;;3.17;100.00;100600.88;5111201;28;19924;-72
2020/12/15 01:27:03;;;;;;;;;;;;;;;3.16;100.00;100598.28;5111009;28;20401;-72
2020/12/15 01:29:37;;;;;;;;;;;;;;;3.15;100.00;100596.56;5094445;28;19930;-72
2020/12/15 01:32:04;;;;;;;;;;;;;;;3.13;100.00;100591.28;5111047;28;19934;-71
2020/12/15 01:34:31;;;;;;;;;;;;;;;3.16;100.00;100600.97;5111723;28;20301;-71
2020/12/15 01:37:03;;;;;;;;;;;;;;;3.12;100.00;100594.91;5110872;28;19931;-71
2020/12/15 01:39:28;;;;;;;;;;;;;;;3.11;100.00;100587.78;5112034;28;19981;-72
2020/12/15 01:42:07;;;;;;;;;;;;;;;3.11;100.00;100590.47;5111015;28;19985;-71
2020/12/15 01:44:33;;;;;;;;;;;;;;;3.11;100.00;100577.06;5110928;28;19924;-71
2020/12/15 01:47:00;;;;;;;;;;;;;;;3.13;100.00;100579.69;5111867;28;20319;-72
2020/12/15 01:49:33;;;;;;;;;;;;;;;3.11;100.00;100581.56;5110927;28;19986;-71
2020/12/15 01:52:01;;;;;;;;;;;;;;;3.09;100.00;100578.13;5110802;28;19966;-71
2020/12/15 01:54:41;;;;;;;;;;;;;;;3.07;100.00;100586.22;5110808;28;19977;-71
2020/12/15 01:57:08;;;;;;;;;;;;;;;3.08;100.00;100581.72;5111735;28;19924;-72
2020/12/15 01:59:50;;;;;;;;;;;;;;;3.08;100.00;100568.31;5110515;28;20602;-71
2020/12/15 02:02:22;;;;;;;;;;;;;;;3.09;100.00;100567.38;5110675;28;20403;-71
2020/12/15 02:04:55;;;;;;;;;;;;;;;3.10;100.00;100569.09;5111001;28;19928;-71
2020/12/15 02:07:23;;;;;;;;;;;;;;;3.11;100.00;100560.97;5110360;28;19930;-71
2020/12/15 02:09:52;;;;;;;;;;;;;;;3.10;100.00;100563.72;5110666;28;19924;-71
2020/12/15 02:12:36;;;;;;;;;;;;;;;3.09;100.00;100562.03;5110584;28;19931;-72
2020/12/15 02:15:04;;;;;;;;;;;;;;;3.09;100.00;100562.88;5111382;28;20302;-71
2020/12/15 02:17:42;;;;;;;;;;;;;;;3.11;100.00;100560.09;5110423;28;19928;-72
2020/12/15 02:20:16;;;;;;;;;;;;;;;3.09;100.00;100560.19;5110494;28;19960;-71
2020/12/15 02:23:01;;;;;;;;;;;;;;;3.09;100.00;100551.28;5110396;28;19927;-71
2020/12/15 02:25:30;;;;;;;;;;;;;;;3.09;100.00;100554.81;5110439;28;19924;-71
2020/12/15 02:27:56;;;;;;;;;;;;;;;3.08;100.00;100566.50;5111416;28;20362;-73
2020/12/15 02:30:22;;;;;;;;;;;;;;;3.06;100.00;100565.72;5110453;28;19928;-71
2020/12/15 02:32:52;;;;;;;;;;;;;;;3.07;100.00;100563.91;5110381;28;20525;-72
2020/12/15 02:35:22;;;;;;;;;;;;;;;3.07;100.00;100572.81;5110109;28;20524;-71
2020/12/15 02:37:48;;;;;;;;;;;;;;;3.04;100.00;100572.97;5111414;28;19924;-71
2020/12/15 02:40:21;;;;;;;;;;;;;;;3.05;100.00;100579.19;5110444;28;19980;-71
2020/12/15 02:42:57;;;;;;;;;;;;;;;3.02;100.00;100572.19;5111543;28;19946;-71
2020/12/15 02:45:26;;;;;;;;;;;;;;;3.01;100.00;100576.69;5111209;28;19924;-72
2020/12/15 02:47:52;;;;;;;;;;;;;;;3.00;100.00;100576.75;5114040;28;19924;-71
2020/12/15 02:50:21;;;;;;;;;;;;;;;2.99;100.00;100575.03;5114406;28;19930;-71
2020/12/15 02:52:51;;;;;;;;;;;;;;;2.96;100.00;100575.19;5114164;28;19924;-71
2020/12/15 02:55:18;;;;;;;;;;;;;;;2.91;100.00;100570.06;5113934;28;19982;-71
2020/12/15 02:57:48;;;;;;;;;;;;;;;2.84;100.00;100577.53;5115111;28;19923;-71
2020/12/15 03:00:15;;;;;;;;;;;;;;;2.82;100.00;100574.09;5114074;28;19955;-71
2020/12/15 03:02:42;;;;;;;;;;;;;;;2.83;100.00;100572.25;5114015;28;19924;-72
2020/12/15 03:05:08;;;;;;;;;;;;;;;2.81;100.00;100572.34;5115196;28;19924;-71
2020/12/15 03:07:38;;;;;;;;;;;;;;;2.77;100.00;100570.78;5113579;28;19955;-71
2020/12/15 03:10:04;;;;;;;;;;;;;;;2.77;100.00;100573.44;5113880;28;19924;-71
2020/12/15 03:12:38;;;;;;;;;;;;;;;2.76;100.00;100581.59;5113640;28;19923;-72
2020/12/15 03:15:07;;;;;;;;;;;;;;;2.74;100.00;100573.63;5113890;28;19923;-71
2020/12/15 03:17:33;;;;;;;;;;;;;;;2.72;100.00;100572.81;5113642;28;20477;-71
2020/12/15 03:20:00;;;;;;;;;;;;;;;2.72;100.00;100572.81;5113704;28;19931;-71
2020/12/15 03:22:29;;;;;;;;;;;;;;;2.71;100.00;100587.16;5113737;28;19924;-71
2020/12/15 03:25:00;;;;;;;;;;;;;;;2.69;100.00;100594.44;5113718;28;19924;-72
2020/12/15 03:27:34;;;;;;;;;;;;;;;2.70;100.00;100593.50;5113421;28;19924;-71
2020/12/15 03:30:01;;;;;;;;;;;;;;;2.68;100.00;100579.28;5113385;28;20018;-72
2020/12/15 03:32:28;;;;;;;;;;;;;;;2.72;100.00;100585.38;5113082;28;20022;-71
2020/12/15 03:34:54;;;;;;;;;;;;;;;2.73;100.00;100571.88;5113474;28;19959;-71
2020/12/15 03:37:21;;;;;;;;;;;;;;;2.76;100.00;100577.06;5113251;28;19924;-71
2020/12/15 03:39:51;;;;;;;;;;;;;;;2.74;100.00;100565.59;5113437;28;19935;-72
2020/12/15 03:42:37;;;;;;;;;;;;;;;2.75;100.00;100561.94;5114397;28;20373;-71
2020/12/15 03:45:03;;;;;;;;;;;;;;;2.76;100.00;100562.81;5113319;28;19969;-71
2020/12/15 03:47:30;;;;;;;;;;;;;;;2.76;100.00;100568.19;5113160;28;20377;-71
2020/12/15 03:49:55;;;;;;;;;;;;;;;2.77;100.00;100567.25;5112988;28;19946;-71
2020/12/15 03:52:21;;;;;;;;;;;;;;;2.79;100.00;100560.84;5095706;28;19934;-72
2020/12/15 03:55:21;;;;;;;;;;;;;;;2.79;100.00;100560.84;5102788;28;19924;-71
2020/12/15 03:57:54;;;;;;;;;;;;;;;2.80;100.00;100562.56;5112325;28;19924;-72
2020/12/15 04:00:33;;;;;;;;;;;;;;;2.82;100.00;100578.59;5113199;28;19923;-72
2020/12/15 04:03:08;;;;;;;;;;;;;;;2.81;100.00;100583.06;5112807;28;20056;-72
2020/12/15 04:05:44;;;;;;;;;;;;;;;2.84;100.00;100579.38;5112895;28;19923;-72
2020/12/15 04:08:10;;;;;;;;;;;;;;;2.84;100.00;100582.91;5112047;28;19927;-72
2020/12/15 04:10:36;;;;;;;;;;;;;;;2.83;100.00;100586.56;5112755;28;20380;-72
2020/12/15 04:13:02;;;;;;;;;;;;;;;2.83;100.00;100589.25;5112587;28;19968;-72
2020/12/15 04:15:34;;;;;;;;;;;;;;;2.81;100.00;100596.47;5112569;28;19924;-71
2020/12/15 04:18:05;;;;;;;;;;;;;;;2.80;100.00;100604.59;5112370;28;19935;-71
2020/12/15 04:20:33;;;;;;;;;;;;;;;2.78;100.00;100603.81;5112730;28;19923;-71
2020/12/15 04:22:59;;;;;;;;;;;;;;;2.77;100.00;100602.09;5112416;28;20025;-71
2020/12/15 04:25:29;;;;;;;;;;;;;;;2.75;100.00;100607.50;5112586;28;20369;-72
2020/12/15 04:27:56;;;;;;;;;;;;;;;2.74;100.00;100597.75;5113276;28;20309;-71
2020/12/15 04:30:22;;;;;;;;;;;;;;;2.70;100.00;100601.53;5112452;28;19977;-72
2020/12/15 04:32:48;;;;;;;;;;;;;;;2.68;100.00;100596.22;5113576;28;19924;-71
2020/12/15 04:35:21;;;;;;;;;;;;;;;2.66;100.00;100587.41;5112394;28;20385;-71
2020/12/15 04:37:52;;;;;;;;;;;;;;;2.64;100.00;100591.09;5112156;28;20385;-72
2020/12/15 04:40:20;;;;;;;;;;;;;;;2.59;100.00;100598.50;5112200;28;19931;-71
2020/12/15 04:42:47;;;;;;;;;;;;;;;2.54;100.00;100603.22;5112106;28;20026;-72
2020/12/15 04:45:16;;;;;;;;;;;;;;;2.53;100.00;100598.84;5111918;28;20274;-71
2020/12/15 04:47:49;;;;;;;;;;;;;;;2.50;100.00;100595.34;5111928;28;19931;-72
2020/12/15 04:50:23;;;;;;;;;;;;;;;2.47;100.00;100602.66;5112006;28;19931;-72
2020/12/15 04:52:58;;;;;;;;;;;;;;;2.45;100.00;100597.38;5111772;28;19930;-72
2020/12/15 04:55:55;;;;;;;;;;;;;;;2.43;100.00;100596.59;5111857;28;20397;-71
2020/12/15 04:58:23;;;;;;;;;;;;;;;2.43;100.00;100590.34;5111849;28;19935;-72
2020/12/15 05:00:52;;;;;;;;;;;;;;;2.41;100.00;100601.16;5111698;28;19924;-71
2020/12/15 05:03:46;;;;;;;;;;;;;;;2.37;100.00;100598.72;5111411;28;19924;-71
2020/12/15 05:06:15;;;;;;;;;;;;;;;2.34;100.00;100589.88;5111488;28;20528;-72
2020/12/15 05:08:46;;;;;;;;;;;;;;;2.35;100.00;100593.41;5111096;28;19930;-73
2020/12/15 05:11:12;;;;;;;;;;;;;;;2.33;100.00;100593.50;5111222;28;19924;-72
2020/12/15 05:13:58;;;;;;;;;;;;;;;2.30;100.00;100595.47;5112704;28;19931;-72
2020/12/15 05:16:36;;;;;;;;;;;;;;;2.28;100.00;100602.69;5112304;28;20389;-72
2020/12/15 05:19:14;;;;;;;;;;;;;;;2.27;100.00;100592.91;5112221;28;20377;-72
2020/12/15 05:21:54;;;;;;;;;;;;;;;2.27;100.00;100603.63;5111186;28;19982;-72
2020/12/15 05:24:28;;;;;;;;;;;;;;;2.28;100.00;100606.22;5111455;28;20052;-73
2020/12/15 05:26:55;;;;;;;;;;;;;;;2.29;100.00;100602.63;5111188;28;20046;-72
2020/12/15 05:29:21;;;;;;;;;;;;;;;2.24;100.00;100618.03;5111313;28;19924;-72
2020/12/15 05:32:05;;;;;;;;;;;;;;;2.26;100.00;100613.50;5111304;28;19932;-72
2020/12/15 05:34:44;;;;;;;;;;;;;;;2.26;100.00;100601.91;5111184;28;20308;-72
2020/12/15 05:37:42;;;;;;;;;;;;;;;2.25;100.00;100601.03;5111984;28;20018;-72
2020/12/15 05:40:39;;;;;;;;;;;;;;;2.25;100.00;100600.19;5108284;28;19975;-72
2020/12/15 05:43:29;;;;;;;;;;;;;;;2.28;100.00;100600.03;5107745;28;19924;-72
2020/12/15 05:45:59;;;;;;;;;;;;;;;2.26;100.00;100599.22;5090505;28;20031;-73
2020/12/15 05:48:27;;;;;;;;;;;;;;;2.26;100.00;100599.22;5100573;28;20033;-73
2020/12/15 05:50:56;;;;;;;;;;;;;;;2.23;100.00;100599.38;5111736;28;19930;-72
2020/12/15 05:53:22;;;;;;;;;;;;;;;2.18;100.00;100591.56;5100378;28;20006;-73
2020/12/15 05:55:48;;;;;;;;;;;;;;;2.16;100.00;100585.41;5102902;28;19924;-72
2020/12/15 05:58:15;;;;;;;;;;;;;;;2.09;100.00;100587.53;5091333;28;20018;-72
2020/12/15 06:00:40;;;;;;;;;;;;;;;2.06;100.00;100589.47;5091533;28;19958;-71
2020/12/15 06:03:07;;;;;;;;;;;;;;;2.04;100.00;100599.41;5104077;28;19946;-72
2020/12/15 06:05:33;;;;;;;;;;;;;;;2.07;100.00;100601.91;5111851;28;19971;-72
2020/12/15 06:07:59;;;;;;;;;;;;;;;2.08;100.00;100604.53;5092962;28;19924;-72
2020/12/15 06:10:26;;;;;;;;;;;;;;;2.07;100.00;100610.84;5091531;28;20011;-72
2020/12/15 06:12:53;;;;;;;;;;;;;;;2.10;100.00;100602.66;5107440;28;20014;-72
2020/12/15 06:15:19;;;;;;;;;;;;;;;2.12;100.00;100608.78;5110773;28;19981;-72
2020/12/15 06:17:49;;;;;;;;;;;;;;;2.13;100.00;100594.47;5111327;28;20284;-72
2020/12/15 06:20:19;;;;;;;;;;;;;;;2.16;100.00;100605.06;5108630;28;20406;-72
2020/12/15 06:22:45;;;;;;;;;;;;;;;2.22;100.00;100605.66;5091475;28;19928;-73
2020/12/15 06:25:11;;;;;;;;;;;;;;;2.28;100.00;100594.66;5092217;28;20001;-71
2020/12/15 06:27:37;;;;;;;;;;;;;;;2.33;100.00;100592.63;5111724;28;19931;-71
2020/12/15 06:30:04;;;;;;;;;;;;;;;2.38;100.00;100587.91;5111132;28;19924;-71
2020/12/15 06:32:29;;;;;;;;;;;;;;;2.42;100.00;100597.53;5091122;28;20019;-72
2020/12/15 06:34:57;;;;;;;;;;;;;;;2.47;100.00;100598.19;5104338;28;20022;-72
2020/12/15 06:37:23;;;;;;;;;;;;;;;2.50;100.00;100594.50;5098266;28;19936;-71
2020/12/15 06:39:53;;;;;;;;;;;;;;;2.50;100.00;100587.31;5107611;28;19931;-72
2020/12/15 06:42:18;;;;;;;;;;;;;;;2.51;100.00;100591.72;5104793;28;19985;-72
2020/12/15 06:44:44;;;;;;;;;;;;;;;2.50;100.00;100595.34;5107938;28;19924;-70
2020/12/15 06:47:11;;;;;;;;;;;;;;;2.49;100.00;100588.25;5098823;28;20033;-71
2020/12/15 06:49:37;;;;;;;;;;;;;;;2.49;100.00;100590.91;5101620;28;20018;-70
2020/12/15 06:52:04;;;;;;;;;;;;;;;2.49;100.00;100595.44;5098434;28;20026;-71
2020/12/15 06:54:30;;;;;;;;;;;;;;;2.50;100.00;100581.94;5095188;28;19930;-71
2020/12/15 06:57:07;;;;;;;;;;;;;;;2.51;100.00;100581.00;5093431;28;20341;-71
2020/12/15 06:59:36;;;;;;;;;;;;;;;2.53;100.00;100580.06;5097648;28;19931;-71
2020/12/15 07:02:06;;;;;;;;;;;;;;;2.52;100.00;100571.16;5110014;28;20022;-71
2020/12/15 07:04:33;;;;;;;;;;;;;;;2.53;100.00;100572.03;5110605;28;20405;-71
2020/12/15 07:06:59;;;;;;;;;;;;;;;2.53;100.00;100564.84;5110838;28;20018;-71
2020/12/15 07:09:25;;;;;;;;;;;;;;;2.54;100.00;100563.91;5110404;28;19996;-71
2020/12/15 07:11:51;;;;;;;;;;;;;;;2.55;100.00;100557.59;5111168;28;20389;-71
2020/12/15 07:14:21;;;;;;;;;;;;;;;2.55;100.00;100573.66;5109448;28;19935;-71
2020/12/15 07:16:47;;;;;;;;;;;;;;;2.57;100.00;100571.78;5098689;28;19976;-71
2020/12/15 07:19:12;;;;;;;;;;;;;;;2.57;100.00;100565.56;5111170;28;19931;-71
2020/12/15 07:21:40;;;;;;;;;;;;;;;2.58;100.00;100565.50;5104500;28;20261;-71
2020/12/15 07:24:08;;;;;;;;;;;;;;;2.59;100.00;100571.69;5090889;28;20374;-71
2020/12/15 07:26:34;;;;;;;;;;;;;;;2.60;100.00;100565.41;5090703;28;19924;-71
2020/12/15 07:29:00;;;;;;;;;;;;;;;2.62;100.00;100558.13;5095537;28;19957;-70
2020/12/15 07:31:26;;;;;;;;;;;;;;;2.64;100.00;100558.94;5100735;28;19924;-70
2020/12/15 07:34:04;;;;;;;;;;;;;;;2.65;100.00;100552.66;5102624;28;19924;-71
2020/12/15 07:36:30;;;;;;;;;;;;;;;2.66;100.00;100554.38;5093614;28;19924;-70
2020/12/15 07:38:56;;;;;;;;;;;;;;;2.68;100.00;100550.66;5099946;28;20377;-70
2020/12/15 07:41:22;;;;;;;;;;;;;;;2.72;100.00;100554.06;5113865;28;19975;-70
2020/12/15 07:43:52;;;;;;;;;;;;;;;2.73;100.00;100547.75;5108764;28;19932;-70
2020/12/15 07:46:19;;;;;;;;;;;;;;;2.73;100.00;100550.44;5102573;28;19951;-70
2020/12/15 07:48:46;;;;;;;;;;;;;;;2.75;100.00;100551.19;5102156;28;19928;-71
2020/12/15 07:51:11;;;;;;;;;;;;;;;2.76;100.00;100555.63;5097161;28;20392;-71
2020/12/15 07:53:37;;;;;;;;;;;;;;;2.78;100.00;100561.78;5099490;28;19924;-71
2020/12/15 07:56:04;;;;;;;;;;;;;;;2.78;100.00;100561.78;5107129;28;19970;-71
2020/12/15 07:58:31;;;;;;;;;;;;;;;2.82;100.00;100575.91;5112443;28;20006;-71
2020/12/15 08:00:57;;;;;;;;;;;;;;;2.80;100.00;100567.94;5107025;28;19953;-72
2020/12/15 08:03:23;;;;;;;;;;;;;;;2.84;100.00;100574.00;5092228;28;20015;-72
2020/12/15 08:05:48;;;;;;;;;;;;;;;2.87;100.00;100565.78;5093714;28;19931;-72
2020/12/15 08:08:15;;;;;;;;;;;;;;;2.90;100.00;100554.94;5093122;28;19935;-72
2020/12/15 08:10:41;;;;;;;;;;;;;;;2.94;100.00;100561.88;5100604;28;20362;-71
2020/12/15 08:13:07;;;;;;;;;;;;;;;2.96;100.00;100573.38;5110198;28;19924;-71
2020/12/15 08:15:36;;;;;;;;;;;;;;;3.00;100.00;100566.91;5093681;28;20106;-71
2020/12/15 08:18:03;;;;;;;;;;;;;;;3.04;100.00;100556.88;5100663;28;19983;-72
2020/12/15 08:20:29;;;;;;;;;;;;;;;3.06;100.00;100564.84;5105773;28;20012;-72
2020/12/15 08:23:04;;;;;;;;;;;;;;;3.09;100.00;100560.19;5108645;28;19989;-72
2020/12/15 08:25:30;;;;;;;;;;;;;;;3.13;100.00;100559.09;5111623;28;20345;-72
2020/12/15 08:28:05;;;;;;;;;;;;;;;3.15;100.00;100565.25;5108727;28;20019;-72
2020/12/15 08:30:32;;;;;;;;;;;;;;;3.21;100.00;100561.38;5113844;28;20321;-72
2020/12/15 08:32:58;;;;;;;;;;;;;;;3.22;100.00;100556.84;5107259;28;20292;-72
2020/12/15 08:35:25;;;;;;;;;;;;;;;3.28;100.00;100556.53;5105602;28;19961;-72
2020/12/15 08:37:55;;;;;;;;;;;;;;;3.31;100.00;100567.09;5092851;28;19931;-72
2020/12/15 08:40:21;;;;;;;;;;;;;;;3.34;100.00;100570.50;5092883;28;19959;-72
2020/12/15 08:42:47;;;;;;;;;;;;;;;3.38;100.00;100573.00;5099131;28;19931;-72
2020/12/15 08:45:13;;;;;;;;;;;;;;;3.44;100.00;100567.31;5112990;28;19927;-72
2020/12/15 08:47:47;;;;;;;;;;;;;;;3.47;100.00;100567.13;5107956;28;19924;-72
2020/12/15 08:50:13;;;;;;;;;;;;;;;3.47;100.00;100564.47;5099189;28;19935;-71
2020/12/15 08:52:40;;;;;;;;;;;;;;;3.47;100.00;100565.31;5098967;28;19924;-71
2020/12/15 08:55:05;;;;;;;;;;;;;;;3.51;100.00;100558.84;5111407;28;19970;-72
2020/12/15 08:57:31;;;;;;;;;;;;;;;3.55;100.00;100564.03;5111911;28;19950;-72
2020/12/15 09:00:07;;;;;;;;;;;;;;;3.57;100.00;100560.34;5107891;28;19923;-72
2020/12/15 09:02:33;;;;;;;;;;;;;;;3.54;100.00;100554.25;5099282;28;19960;-72
2020/12/15 09:05:05;;;;;;;;;;;;;;;3.57;100.00;100563.00;5112572;28;19928;-71
2020/12/15 09:07:30;;;;;;;;;;;;;;;3.57;100.00;100554.97;5103128;28;19999;-71
2020/12/15 09:09:56;;;;;;;;;;;;;;;3.61;100.00;100544.94;5103004;28;19931;-72
2020/12/15 09:12:22;;;;;;;;;;;;;;;3.65;100.00;100550.03;5111921;28;19981;-72
2020/12/15 09:14:48;;;;;;;;;;;;;;;3.68;100.00;100554.38;5112660;28;19931;-72
2020/12/15 09:17:22;;;;;;;;;;;;;;;3.73;100.00;100556.78;5105058;28;19928;-72
2020/12/15 09:19:48;;;;;;;;;;;;;;;3.78;100.00;100560.97;5111673;28;19946;-72
2020/12/15 09:22:16;;;;;;;;;;;;;;;3.82;100.00;100546.41;5100687;28;19928;-72
2020/12/15 09:24:42;;;;;;;;;;;;;;;3.79;100.00;100557.31;5092875;28;20354;-72
2020/12/15 09:27:16;;;;;;;;;;;;;;;3.79;100.00;100540.34;5104570;28;19955;-72
2020/12/15 09:29:42;;;;;;;;;;;;;;;3.81;100.00;100549.19;5091980;28;20485;-72
2020/12/15 09:32:08;;;;;;;;;;;;;;;3.83;100.00;100566.94;5093993;28;19924;-72
2020/12/15 09:34:34;;;;;;;;;;;;;;;3.89;100.00;100556.81;5112363;28;20369;-72
2020/12/15 09:37:00;;;;;;;;;;;;;;;4.01;100.00;100548.06;5111292;28;20061;-72
2020/12/15 09:39:27;;;;;;;;;;;;;;;4.05;100.00;100552.31;5109735;28;20393;-72
2020/12/15 09:41:53;;;;;;;;;;;;;;;4.04;100.00;100545.19;5100984;28;20022;-72
2020/12/15 09:44:19;;;;;;;;;;;;;;;4.08;100.00;100536.00;5091470;28;19932;-72
2020/12/15 09:46:45;;;;;;;;;;;;;;;4.24;100.00;100530.63;5102808;28;20546;-73
2020/12/15 09:49:11;;;;;;;;;;;;;;;4.25;100.00;100532.38;5091786;28;19924;-72
2020/12/15 09:51:37;;;;;;;;;;;;;;;4.34;100.00;100523.78;5106609;28;19957;-73
2020/12/15 09:54:02;;;;;;;;;;;;;;;4.51;100.00;100519.22;5109087;28;19928;-71
2020/12/15 09:56:30;;;;;;;;;;;;;;;4.53;100.00;100514.63;5091985;28;19932;-72
2020/12/15 09:58:56;;;;;;;;;;;;;;;4.59;100.00;100497.25;5094295;28;19936;-72
2020/12/15 10:01:22;;;;;;;;;;;;;;;4.85;100.00;100512.69;5100104;28;19923;-72
2020/12/15 10:03:48;;;;;;;;;;;;;;;4.66;100.00;100499.50;5095661;28;19924;-72
2020/12/15 10:06:15;;;;;;;;;;;;;;;4.68;100.00;100508.31;5093920;28;19954;-72
2020/12/15 10:08:41;;;;;;;;;;;;;;;4.64;100.00;100513.97;5111801;28;20006;-72
2020/12/15 10:11:07;;;;;;;;;;;;;;;4.67;100.00;100517.34;5108107;28;19931;-72
2020/12/15 10:13:33;;;;;;;;;;;;;;;4.68;100.00;100520.91;5091414;28;19928;-71
2020/12/15 10:15:59;;;;;;;;;;;;;;;4.58;100.00;100525.09;5092055;28;19924;-72
2020/12/15 10:18:25;;;;;;;;;;;;;;;4.60;100.00;100513.28;5107462;28;19923;-72
2020/12/15 10:20:50;;;;;;;;;;;;;;;4.51;100.00;100517.38;5100888;28;19931;-72
2020/12/15 10:23:16;;;;;;;;;;;;;;;4.51;100.00;100520.06;5102682;28;19928;-72
2020/12/15 10:25:42;;;;;;;;;;;;;;;4.45;100.00;100506.13;5100539;28;19924;-71
2020/12/15 10:28:09;;;;;;;;;;;;;;;4.48;100.00;100528.31;5101278;28;19930;-71
2020/12/15 10:30:36;;;;;;;;;;;;;;;4.43;100.00;100513.44;5111123;28;19924;-71
2020/12/15 10:33:02;;;;;;;;;;;;;;;4.48;100.00;100519.41;5103897;28;20398;-72
2020/12/15 10:35:28;;;;;;;;;;;;;;;4.47;100.00;100513.13;5103362;28;19955;-71
2020/12/15 10:37:53;;;;;;;;;;;;;;;4.43;100.00;100511.59;5091410;28;19984;-72
2020/12/15 10:40:19;;;;;;;;;;;;;;;4.46;100.00;100507.84;5097253;28;19924;-71
2020/12/15 10:42:45;;;;;;;;;;;;;;;4.50;100.00;100507.59;5091208;28;20378;-71
2020/12/15 10:45:11;;;;;;;;;;;;;;;4.50;100.00;100493.28;5090997;28;19925;-70
2020/12/15 10:47:37;;;;;;;;;;;;;;;4.49;100.00;100492.44;5090736;28;19989;-73
2020/12/15 10:50:03;;;;;;;;;;;;;;;4.54;100.00;100494.81;5091265;28;19928;-73
2020/12/15 10:52:29;;;;;;;;;;;;;;;4.54;100.00;100492.13;5097130;28;19923;-70
2020/12/15 10:54:55;;;;;;;;;;;;;;;4.53;100.00;100485.91;5095773;28;19928;-73
2020/12/15 10:57:21;;;;;;;;;;;;;;;4.55;100.00;100491.19;5105352;28;19927;-72
2020/12/15 10:59:47;;;;;;;;;;;;;;;4.62;100.00;100491.69;5103940;28;20316;-73
2020/12/15 11:02:13;;;;;;;;;;;;;;;4.60;100.00;100482.88;5096899;28;20000;-73
2020/12/15 11:04:40;;;;;;;;;;;;;;;4.65;100.00;100494.19;5091604;28;19924;-71
2020/12/15 11:07:05;;;;;;;;;;;;;;;4.66;100.00;100487.84;5090679;28;19928;-73
2020/12/15 11:09:31;;;;;;;;;;;;;;;4.70;100.00;100494.78;5096990;28;19950;-69
2020/12/15 11:11:58;;;;;;;;;;;;;;;4.74;100.00;100496.31;5115048;28;19923;-73
2020/12/15 11:14:23;;;;;;;;;;;;;;;4.77;100.00;100496.16;5105796;28;19930;-73
2020/12/15 11:16:49;;;;;;;;;;;;;;;4.76;100.00;100498.94;5094402;28;19924;-73
2020/12/15 11:19:15;;;;;;;;;;;;;;;4.83;100.00;100495.75;5105671;28;19977;-72
2020/12/15 11:21:42;;;;;;;;;;;;;;;4.86;100.00;100500.97;5115287;28;19924;-72
2020/12/15 11:24:07;;;;;;;;;;;;;;;4.86;100.00;100500.97;5113938;28;20015;-72
2020/12/15 11:26:33;;;;;;;;;;;;;;;4.89;100.00;100507.09;5114231;28;20470;-72
2020/12/15 11:28:59;;;;;;;;;;;;;;;4.90;100.00;100511.53;5103326;28;19924;-73
2020/12/15 11:31:25;;;;;;;;;;;;;;;4.96;100.00;100512.03;5101943;28;20014;-72
2020/12/15 11:33:51;;;;;;;;;;;;;;;4.95;100.00;100512.13;5095456;28;20361;-72
2020/12/15 11:36:16;;;;;;;;;;;;;;;4.99;100.00;100510.97;5101030;28;19939;-72
2020/12/15 11:38:44;;;;;;;;;;;;;;;4.99;100.00;100516.34;5109946;28;19993;-72
2020/12/15 11:41:10;;;;;;;;;;;;;;;4.97;100.00;100511.06;5109536;28;20556;-73
2020/12/15 11:43:36;;;;;;;;;;;;;;;5.07;100.00;100522.13;5096307;28;20023;-73
2020/12/15 11:46:02;;;;;;;;;;;;;;;5.07;100.00;100510.50;5107078;28;19931;-73
2020/12/15 11:48:27;;;;;;;;;;;;;;;5.05;100.00;100509.72;5104124;28;19924;-72
2020/12/15 11:50:53;;;;;;;;;;;;;;;5.07;100.00;100508.66;5099616;28;20381;-73
2020/12/15 11:53:19;;;;;;;;;;;;;;;5.08;100.00;100517.59;5099770;28;19923;-72
2020/12/15 11:55:45;;;;;;;;;;;;;;;5.06;100.00;100512.31;5106538;28;19973;-72
2020/12/15 11:58:11;;;;;;;;;;;;;;;5.13;100.00;100512.81;5113467;28;20010;-72
2020/12/15 12:00:37;;;;;;;;;;;;;;;5.13;100.00;100519.06;5113031;28;19969;-72
2020/12/15 12:03:03;;;;;;;;;;;;;;;5.15;100.00;100506.38;5113869;28;20278;-72
2020/12/15 12:05:28;;;;;;;;;;;;;;;5.23;100.00;100508.59;5104195;28;19923;-73
2020/12/15 12:07:54;;;;;;;;;;;;;;;5.15;100.00;100508.19;5095317;28;19977;-72
2020/12/15 12:10:20;;;;;;;;;;;;;;;5.17;100.00;100511.66;5103808;28;19927;-73
2020/12/15 12:12:47;;;;;;;;;;;;;;;5.14;100.00;100510.00;5114357;28;20377;-73
2020/12/15 12:15:12;;;;;;;;;;;;;;;5.26;100.00;100510.22;5113157;28;20018;-73
2020/12/15 12:17:38;;;;;;;;;;;;;;;5.25;100.00;100508.47;5113988;28;19935;-73
2020/12/15 12:20:04;;;;;;;;;;;;;;;5.39;100.00;100513.03;5106983;28;19924;-72
2020/12/15 12:22:30;;;;;;;;;;;;;;;5.49;100.00;100515.03;5097717;28;20392;-73
2020/12/15 12:24:56;;;;;;;;;;;;;;;5.58;100.00;100518.09;5100393;28;19931;-73
2020/12/15 12:27:21;;;;;;;;;;;;;;;5.64;100.00;100523.09;5106105;28;20378;-73
2020/12/15 12:29:48;;;;;;;;;;;;;;;5.70;100.00;100520.00;5113965;28;19929;-73
2020/12/15 12:32:14;;;;;;;;;;;;;;;5.72;100.00;100515.41;5111375;28;19932;-73
2020/12/15 12:34:40;;;;;;;;;;;;;;;5.73;100.00;100517.09;5109165;28;19977;-73
2020/12/15 12:37:08;;;;;;;;;;;;;;;5.76;100.00;100516.94;5113049;28;19924;-73
2020/12/15 12:39:35;;;;;;;;;;;;;;;5.82;100.00;100521.03;5093828;28;19960;-73
2020/12/15 12:42:01;;;;;;;;;;;;;;;5.80;100.00;100513.06;5094263;28;19986;-72